sensor_id;sensor_type;location;lat;lon;timestamp;P1;durP1;ratioP1;P2;durP2;ratioP2
1446;SDS011;717;51.522;7.266;2023-02-18T00:00:14;21.80;;;19.08;;
1446;SDS011;717;51.522;7.266;2023-02-18T00:02:44;22.73;;;20.30;;
1446;SDS011;717;51.522;7.266;2023-02-18T00:05:14;22.67;;;19.35;;
1446;SDS011;717;51.522;7.266;2023-02-18T00:07:43;19.75;;;17.58;;
1446;SDS011;717;51.522;7.266;2023-02-18T00:10:12;23.38;;;18.45;;
1446;SDS011;717;51.522;7.266;2023-02-18T00:12:44;22.98;;;19.52;;
1446;SDS011;717;51.522;7.266;2023-02-18T00:15:15;20.83;;;18.30;;
1446;SDS011;717;51.522;7.266;2023-02-18T00:17:44;20.92;;;17.23;;
1446;SDS011;717;51.522;7.266;2023-02-18T00:20:13;20.73;;;18.33;;
1446;SDS011;717;51.522;7.266;2023-02-18T00:22:41;20.52;;;18.30;;
1446;SDS011;717;51.522;7.266;2023-02-18T00:25:10;20.58;;;16.35;;
1446;SDS011;717;51.522;7.266;2023-02-18T00:27:38;19.77;;;17.67;;
1446;SDS011;717;51.522;7.266;2023-02-18T00:30:07;20.42;;;16.92;;
1446;SDS011;717;51.522;7.266;2023-02-18T00:32:39;20.70;;;18.23;;
1446;SDS011;717;51.522;7.266;2023-02-18T00:35:08;21.45;;;19.15;;
1446;SDS011;717;51.522;7.266;2023-02-18T00:37:36;21.48;;;17.50;;
1446;SDS011;717;51.522;7.266;2023-02-18T00:40:06;21.45;;;17.23;;
1446;SDS011;717;51.522;7.266;2023-02-18T00:42:35;19.58;;;16.95;;
1446;SDS011;717;51.522;7.266;2023-02-18T00:45:04;23.05;;;18.80;;
1446;SDS011;717;51.522;7.266;2023-02-18T00:47:33;20.85;;;17.48;;
1446;SDS011;717;51.522;7.266;2023-02-18T00:50:05;20.75;;;17.50;;
1446;SDS011;717;51.522;7.266;2023-02-18T00:52:35;23.08;;;18.10;;
1446;SDS011;717;51.522;7.266;2023-02-18T00:55:04;20.65;;;18.17;;
1446;SDS011;717;51.522;7.266;2023-02-18T00:57:33;22.88;;;19.83;;
1446;SDS011;717;51.522;7.266;2023-02-18T01:00:02;23.10;;;19.30;;
1446;SDS011;717;51.522;7.266;2023-02-18T01:02:32;22.58;;;19.35;;
1446;SDS011;717;51.522;7.266;2023-02-18T01:05:04;23.58;;;20.38;;
1446;SDS011;717;51.522;7.266;2023-02-18T01:07:32;21.60;;;19.35;;
1446;SDS011;717;51.522;7.266;2023-02-18T01:10:01;22.63;;;20.23;;
1446;SDS011;717;51.522;7.266;2023-02-18T01:12:30;22.27;;;18.10;;
1446;SDS011;717;51.522;7.266;2023-02-18T01:14:59;21.77;;;19.00;;
1446;SDS011;717;51.522;7.266;2023-02-18T01:17:27;22.58;;;19.75;;
1446;SDS011;717;51.522;7.266;2023-02-18T01:19:56;22.73;;;18.55;;
1446;SDS011;717;51.522;7.266;2023-02-18T01:22:27;23.50;;;21.10;;
1446;SDS011;717;51.522;7.266;2023-02-18T01:24:56;23.00;;;20.08;;
1446;SDS011;717;51.522;7.266;2023-02-18T01:27:24;25.80;;;20.50;;
1446;SDS011;717;51.522;7.266;2023-02-18T01:29:53;26.75;;;22.42;;
1446;SDS011;717;51.522;7.266;2023-02-18T01:32:22;26.40;;;22.23;;
1446;SDS011;717;51.522;7.266;2023-02-18T01:34:51;29.65;;;25.67;;
1446;SDS011;717;51.522;7.266;2023-02-18T01:37:19;30.10;;;25.30;;
1446;SDS011;717;51.522;7.266;2023-02-18T01:39:50;28.70;;;24.90;;
1446;SDS011;717;51.522;7.266;2023-02-18T01:42:20;30.75;;;25.60;;
1446;SDS011;717;51.522;7.266;2023-02-18T01:44:50;33.10;;;27.42;;
1446;SDS011;717;51.522;7.266;2023-02-18T01:47:19;32.58;;;25.80;;
1446;SDS011;717;51.522;7.266;2023-02-18T01:49:49;33.25;;;27.83;;
1446;SDS011;717;51.522;7.266;2023-02-18T01:52:21;33.10;;;27.60;;
1446;SDS011;717;51.522;7.266;2023-02-18T01:54:59;35.00;;;29.73;;
1446;SDS011;717;51.522;7.266;2023-02-18T01:57:29;32.67;;;27.50;;
1446;SDS011;717;51.522;7.266;2023-02-18T02:00:02;34.53;;;27.05;;
1446;SDS011;717;51.522;7.266;2023-02-18T02:02:36;34.42;;;26.15;;
1446;SDS011;717;51.522;7.266;2023-02-18T02:05:09;35.13;;;28.05;;
1446;SDS011;717;51.522;7.266;2023-02-18T02:07:38;35.08;;;31.38;;
1446;SDS011;717;51.522;7.266;2023-02-18T02:10:12;36.30;;;29.48;;
1446;SDS011;717;51.522;7.266;2023-02-18T02:12:45;36.25;;;29.45;;
1446;SDS011;717;51.522;7.266;2023-02-18T02:15:23;33.47;;;26.92;;
1446;SDS011;717;51.522;7.266;2023-02-18T02:27:17;36.58;;;26.98;;
1446;SDS011;717;51.522;7.266;2023-02-18T02:33:13;33.63;;;25.20;;
1446;SDS011;717;51.522;7.266;2023-02-18T02:36:05;33.83;;;26.98;;
1446;SDS011;717;51.522;7.266;2023-02-18T02:38:43;34.67;;;27.77;;
1446;SDS011;717;51.522;7.266;2023-02-18T02:41:23;31.15;;;27.70;;
1446;SDS011;717;51.522;7.266;2023-02-18T02:44:04;30.80;;;26.05;;
1446;SDS011;717;51.522;7.266;2023-02-18T02:46:43;31.77;;;25.88;;
1446;SDS011;717;51.522;7.266;2023-02-18T02:49:17;27.08;;;24.20;;
1446;SDS011;717;51.522;7.266;2023-02-18T02:51:58;26.20;;;21.70;;
1446;SDS011;717;51.522;7.266;2023-02-18T02:54:32;24.25;;;21.17;;
1446;SDS011;717;51.522;7.266;2023-02-18T02:57:08;25.90;;;22.50;;
1446;SDS011;717;51.522;7.266;2023-02-18T02:59:58;24.83;;;20.50;;
1446;SDS011;717;51.522;7.266;2023-02-18T03:02:31;23.70;;;21.20;;
1446;SDS011;717;51.522;7.266;2023-02-18T03:05:09;20.75;;;18.42;;
1446;SDS011;717;51.522;7.266;2023-02-18T03:07:54;22.17;;;19.42;;
1446;SDS011;717;51.522;7.266;2023-02-18T03:10:35;21.23;;;17.73;;
1446;SDS011;717;51.522;7.266;2023-02-18T03:13:16;21.42;;;18.05;;
1446;SDS011;717;51.522;7.266;2023-02-18T03:15:54;21.23;;;17.50;;
1446;SDS011;717;51.522;7.266;2023-02-18T03:18:28;19.85;;;16.50;;
1446;SDS011;717;51.522;7.266;2023-02-18T03:21:03;18.60;;;16.65;;
1446;SDS011;717;51.522;7.266;2023-02-18T03:23:37;20.48;;;16.35;;
1446;SDS011;717;51.522;7.266;2023-02-18T03:26:10;17.67;;;15.50;;
1446;SDS011;717;51.522;7.266;2023-02-18T03:28:40;16.77;;;13.65;;
1446;SDS011;717;51.522;7.266;2023-02-18T03:31:11;17.80;;;13.55;;
1446;SDS011;717;51.522;7.266;2023-02-18T03:33:43;15.77;;;12.82;;
1446;SDS011;717;51.522;7.266;2023-02-18T03:36:22;14.18;;;11.43;;
1446;SDS011;717;51.522;7.266;2023-02-18T03:38:55;15.63;;;12.85;;
1446;SDS011;717;51.522;7.266;2023-02-18T03:41:28;13.75;;;11.90;;
1446;SDS011;717;51.522;7.266;2023-02-18T03:43:58;13.45;;;10.38;;
1446;SDS011;717;51.522;7.266;2023-02-18T03:46:29;11.98;;;9.15;;
1446;SDS011;717;51.522;7.266;2023-02-18T03:48:58;12.18;;;10.35;;
1446;SDS011;717;51.522;7.266;2023-02-18T03:51:27;10.95;;;9.70;;
1446;SDS011;717;51.522;7.266;2023-02-18T03:53:58;12.52;;;9.48;;
1446;SDS011;717;51.522;7.266;2023-02-18T03:56:26;11.40;;;9.35;;
1446;SDS011;717;51.522;7.266;2023-02-18T03:58:55;10.63;;;9.15;;
1446;SDS011;717;51.522;7.266;2023-02-18T04:01:23;10.25;;;8.43;;
1446;SDS011;717;51.522;7.266;2023-02-18T04:03:52;10.90;;;9.50;;
1446;SDS011;717;51.522;7.266;2023-02-18T04:06:21;11.13;;;9.55;;
1446;SDS011;717;51.522;7.266;2023-02-18T04:08:50;11.82;;;10.23;;
1446;SDS011;717;51.522;7.266;2023-02-18T04:11:22;12.77;;;10.55;;
1446;SDS011;717;51.522;7.266;2023-02-18T04:13:50;12.68;;;9.95;;
1446;SDS011;717;51.522;7.266;2023-02-18T04:16:19;10.48;;;8.93;;
1446;SDS011;717;51.522;7.266;2023-02-18T04:18:47;14.20;;;9.85;;
1446;SDS011;717;51.522;7.266;2023-02-18T04:21:16;15.10;;;11.23;;
1446;SDS011;717;51.522;7.266;2023-02-18T04:23:44;15.25;;;11.40;;
1446;SDS011;717;51.522;7.266;2023-02-18T04:26:13;13.48;;;9.45;;
1446;SDS011;717;51.522;7.266;2023-02-18T04:28:44;12.32;;;9.52;;
1446;SDS011;717;51.522;7.266;2023-02-18T04:31:13;13.75;;;10.80;;
1446;SDS011;717;51.522;7.266;2023-02-18T04:33:41;11.70;;;9.57;;
1446;SDS011;717;51.522;7.266;2023-02-18T04:36:10;13.10;;;10.18;;
1446;SDS011;717;51.522;7.266;2023-02-18T04:38:39;14.18;;;10.88;;
1446;SDS011;717;51.522;7.266;2023-02-18T04:41:08;12.40;;;9.00;;
1446;SDS011;717;51.522;7.266;2023-02-18T04:43:36;12.98;;;9.57;;
1446;SDS011;717;51.522;7.266;2023-02-18T04:46:08;13.27;;;9.85;;
1446;SDS011;717;51.522;7.266;2023-02-18T04:48:36;12.10;;;8.63;;
1446;SDS011;717;51.522;7.266;2023-02-18T04:51:05;10.70;;;7.32;;
1446;SDS011;717;51.522;7.266;2023-02-18T04:53:34;9.20;;;6.50;;
1446;SDS011;717;51.522;7.266;2023-02-18T04:56:03;11.60;;;7.35;;
1446;SDS011;717;51.522;7.266;2023-02-18T04:58:32;10.50;;;7.55;;
1446;SDS011;717;51.522;7.266;2023-02-18T05:01:00;8.82;;;6.53;;
1446;SDS011;717;51.522;7.266;2023-02-18T05:03:33;7.13;;;6.13;;
1446;SDS011;717;51.522;7.266;2023-02-18T05:06:01;8.13;;;6.47;;
1446;SDS011;717;51.522;7.266;2023-02-18T05:08:30;6.63;;;4.88;;
1446;SDS011;717;51.522;7.266;2023-02-18T05:10:59;6.75;;;4.95;;
1446;SDS011;717;51.522;7.266;2023-02-18T05:13:31;5.32;;;4.22;;
1446;SDS011;717;51.522;7.266;2023-02-18T05:16:00;5.97;;;4.35;;
1446;SDS011;717;51.522;7.266;2023-02-18T05:18:29;4.80;;;3.25;;
1446;SDS011;717;51.522;7.266;2023-02-18T05:21:00;4.60;;;3.20;;
1446;SDS011;717;51.522;7.266;2023-02-18T05:23:28;3.78;;;2.80;;
1446;SDS011;717;51.522;7.266;2023-02-18T05:25:57;2.83;;;2.55;;
1446;SDS011;717;51.522;7.266;2023-02-18T05:28:26;2.95;;;2.60;;
1446;SDS011;717;51.522;7.266;2023-02-18T05:30:55;2.30;;;2.10;;
1446;SDS011;717;51.522;7.266;2023-02-18T05:33:23;2.25;;;2.05;;
1446;SDS011;717;51.522;7.266;2023-02-18T05:35:52;1.70;;;1.60;;
1446;SDS011;717;51.522;7.266;2023-02-18T05:38:23;1.50;;;1.40;;
1446;SDS011;717;51.522;7.266;2023-02-18T05:40:52;1.35;;;1.25;;
1446;SDS011;717;51.522;7.266;2023-02-18T05:43:20;2.20;;;1.98;;
1446;SDS011;717;51.522;7.266;2023-02-18T05:45:49;1.77;;;1.10;;
1446;SDS011;717;51.522;7.266;2023-02-18T05:48:17;1.38;;;1.27;;
1446;SDS011;717;51.522;7.266;2023-02-18T05:50:46;2.05;;;1.70;;
1446;SDS011;717;51.522;7.266;2023-02-18T05:53:17;1.50;;;1.40;;
1446;SDS011;717;51.522;7.266;2023-02-18T05:55:49;2.40;;;2.20;;
1446;SDS011;717;51.522;7.266;2023-02-18T05:58:17;2.10;;;1.25;;
1446;SDS011;717;51.522;7.266;2023-02-18T06:00:46;1.92;;;1.73;;
1446;SDS011;717;51.522;7.266;2023-02-18T06:03:14;2.00;;;1.90;;
1446;SDS011;717;51.522;7.266;2023-02-18T06:05:43;1.70;;;1.60;;
1446;SDS011;717;51.522;7.266;2023-02-18T06:08:11;2.75;;;2.55;;
1446;SDS011;717;51.522;7.266;2023-02-18T06:10:40;3.05;;;2.50;;
1446;SDS011;717;51.522;7.266;2023-02-18T06:13:11;2.67;;;2.47;;
1446;SDS011;717;51.522;7.266;2023-02-18T06:15:40;2.63;;;2.22;;
1446;SDS011;717;51.522;7.266;2023-02-18T06:18:08;2.92;;;2.30;;
1446;SDS011;717;51.522;7.266;2023-02-18T06:20:37;3.67;;;2.40;;
1446;SDS011;717;51.522;7.266;2023-02-18T06:23:06;3.78;;;3.47;;
1446;SDS011;717;51.522;7.266;2023-02-18T06:25:34;3.78;;;2.75;;
1446;SDS011;717;51.522;7.266;2023-02-18T06:28:03;2.80;;;2.45;;
1446;SDS011;717;51.522;7.266;2023-02-18T06:30:34;2.60;;;2.40;;
1446;SDS011;717;51.522;7.266;2023-02-18T06:33:03;2.60;;;2.40;;
1446;SDS011;717;51.522;7.266;2023-02-18T06:35:32;2.60;;;2.40;;
1446;SDS011;717;51.522;7.266;2023-02-18T06:38:00;3.00;;;2.40;;
1446;SDS011;717;51.522;7.266;2023-02-18T06:40:29;2.40;;;2.20;;
1446;SDS011;717;51.522;7.266;2023-02-18T06:42:58;3.22;;;2.30;;
1446;SDS011;717;51.522;7.266;2023-02-18T06:45:26;1.80;;;1.70;;
1446;SDS011;717;51.522;7.266;2023-02-18T06:47:57;2.08;;;1.88;;
1446;SDS011;717;51.522;7.266;2023-02-18T06:50:26;2.47;;;2.28;;
1446;SDS011;717;51.522;7.266;2023-02-18T06:52:54;1.67;;;1.58;;
1446;SDS011;717;51.522;7.266;2023-02-18T06:55:23;2.45;;;2.00;;
1446;SDS011;717;51.522;7.266;2023-02-18T06:57:52;2.03;;;1.67;;
1446;SDS011;717;51.522;7.266;2023-02-18T07:00:21;2.10;;;1.50;;
1446;SDS011;717;51.522;7.266;2023-02-18T07:02:50;2.00;;;1.65;;
1446;SDS011;717;51.522;7.266;2023-02-18T07:05:21;2.20;;;2.00;;
1446;SDS011;717;51.522;7.266;2023-02-18T07:07:49;2.35;;;2.08;;
1446;SDS011;717;51.522;7.266;2023-02-18T07:10:18;2.47;;;2.28;;
1446;SDS011;717;51.522;7.266;2023-02-18T07:12:46;3.03;;;2.20;;
1446;SDS011;717;51.522;7.266;2023-02-18T07:15:15;3.00;;;1.88;;
1446;SDS011;717;51.522;7.266;2023-02-18T07:17:48;5.13;;;3.45;;
1446;SDS011;717;51.522;7.266;2023-02-18T07:20:16;3.28;;;2.83;;
1446;SDS011;717;51.522;7.266;2023-02-18T07:22:48;3.20;;;2.50;;
1446;SDS011;717;51.522;7.266;2023-02-18T07:25:17;2.65;;;2.45;;
1446;SDS011;717;51.522;7.266;2023-02-18T07:27:46;2.88;;;2.65;;
1446;SDS011;717;51.522;7.266;2023-02-18T07:30:14;3.65;;;3.20;;
1446;SDS011;717;51.522;7.266;2023-02-18T07:32:43;2.75;;;2.50;;
1446;SDS011;717;51.522;7.266;2023-02-18T07:35:12;2.80;;;2.50;;
1446;SDS011;717;51.522;7.266;2023-02-18T07:37:43;3.78;;;3.35;;
1446;SDS011;717;51.522;7.266;2023-02-18T07:40:15;3.95;;;3.38;;
1446;SDS011;717;51.522;7.266;2023-02-18T07:42:45;3.88;;;3.53;;
1446;SDS011;717;51.522;7.266;2023-02-18T07:45:14;5.07;;;4.40;;
1446;SDS011;717;51.522;7.266;2023-02-18T07:47:43;6.00;;;5.47;;
1446;SDS011;717;51.522;7.266;2023-02-18T07:50:12;5.90;;;5.30;;
1446;SDS011;717;51.522;7.266;2023-02-18T07:52:40;6.70;;;5.55;;
1446;SDS011;717;51.522;7.266;2023-02-18T07:55:09;6.20;;;5.60;;
1446;SDS011;717;51.522;7.266;2023-02-18T07:57:40;6.03;;;4.88;;
1446;SDS011;717;51.522;7.266;2023-02-18T08:00:23;6.03;;;5.53;;
1446;SDS011;717;51.522;7.266;2023-02-18T08:02:52;5.22;;;4.63;;
1446;SDS011;717;51.522;7.266;2023-02-18T08:05:20;4.95;;;4.13;;
1446;SDS011;717;51.522;7.266;2023-02-18T08:07:49;5.72;;;5.13;;
1446;SDS011;717;51.522;7.266;2023-02-18T08:10:18;6.13;;;5.47;;
1446;SDS011;717;51.522;7.266;2023-02-18T08:12:49;6.07;;;4.80;;
1446;SDS011;717;51.522;7.266;2023-02-18T08:15:18;4.22;;;3.20;;
1446;SDS011;717;51.522;7.266;2023-02-18T08:17:46;6.35;;;5.07;;
1446;SDS011;717;51.522;7.266;2023-02-18T08:20:15;5.60;;;4.43;;
1446;SDS011;717;51.522;7.266;2023-02-18T08:22:44;5.25;;;4.50;;
1446;SDS011;717;51.522;7.266;2023-02-18T08:25:12;5.32;;;4.50;;
1446;SDS011;717;51.522;7.266;2023-02-18T08:27:41;5.13;;;4.32;;
1446;SDS011;717;51.522;7.266;2023-02-18T08:30:12;4.97;;;4.28;;
1446;SDS011;717;51.522;7.266;2023-02-18T08:32:41;5.15;;;3.65;;
1446;SDS011;717;51.522;7.266;2023-02-18T08:35:10;3.35;;;3.03;;
1446;SDS011;717;51.522;7.266;2023-02-18T08:37:39;5.20;;;4.65;;
1446;SDS011;717;51.522;7.266;2023-02-18T08:40:08;4.93;;;2.70;;
1446;SDS011;717;51.522;7.266;2023-02-18T08:42:38;4.25;;;3.85;;
1446;SDS011;717;51.522;7.266;2023-02-18T08:45:07;3.80;;;3.45;;
1446;SDS011;717;51.522;7.266;2023-02-18T08:47:38;5.55;;;4.50;;
1446;SDS011;717;51.522;7.266;2023-02-18T08:50:07;5.57;;;5.00;;
1446;SDS011;717;51.522;7.266;2023-02-18T08:52:36;5.50;;;5.00;;
1446;SDS011;717;51.522;7.266;2023-02-18T08:55:05;5.82;;;5.32;;
1446;SDS011;717;51.522;7.266;2023-02-18T08:57:35;5.93;;;5.32;;
1446;SDS011;717;51.522;7.266;2023-02-18T09:00:04;4.03;;;3.60;;
1446;SDS011;717;51.522;7.266;2023-02-18T09:02:33;5.50;;;4.93;;
1446;SDS011;717;51.522;7.266;2023-02-18T09:05:05;6.22;;;4.45;;
1446;SDS011;717;51.522;7.266;2023-02-18T09:07:34;7.15;;;3.92;;
1446;SDS011;717;51.522;7.266;2023-02-18T09:10:03;7.57;;;5.53;;
1446;SDS011;717;51.522;7.266;2023-02-18T09:12:33;6.60;;;4.38;;
1446;SDS011;717;51.522;7.266;2023-02-18T09:15:02;10.82;;;7.10;;
1446;SDS011;717;51.522;7.266;2023-02-18T09:17:32;8.57;;;5.70;;
1446;SDS011;717;51.522;7.266;2023-02-18T09:20:00;11.20;;;7.07;;
1446;SDS011;717;51.522;7.266;2023-02-18T09:22:32;10.63;;;5.88;;
1446;SDS011;717;51.522;7.266;2023-02-18T09:25:01;5.43;;;4.18;;
1446;SDS011;717;51.522;7.266;2023-02-18T09:27:31;8.25;;;6.22;;
1446;SDS011;717;51.522;7.266;2023-02-18T09:30:00;1.95;;;1.45;;
1446;SDS011;717;51.522;7.266;2023-02-18T09:32:28;11.10;;;6.70;;
1446;SDS011;717;51.522;7.266;2023-02-18T09:34:57;12.45;;;5.60;;
1446;SDS011;717;51.522;7.266;2023-02-18T09:37:26;7.78;;;4.30;;
1446;SDS011;717;51.522;7.266;2023-02-18T09:39:57;8.35;;;3.78;;
1446;SDS011;717;51.522;7.266;2023-02-18T09:42:28;6.15;;;4.05;;
1446;SDS011;717;51.522;7.266;2023-02-18T09:45:02;13.70;;;4.82;;
1446;SDS011;717;51.522;7.266;2023-02-18T09:47:33;9.25;;;4.50;;
1446;SDS011;717;51.522;7.266;2023-02-18T09:50:05;8.88;;;4.35;;
1446;SDS011;717;51.522;7.266;2023-02-18T09:52:39;4.65;;;3.83;;
1446;SDS011;717;51.522;7.266;2023-02-18T09:55:18;10.25;;;4.78;;
1446;SDS011;717;51.522;7.266;2023-02-18T09:57:50;13.43;;;5.95;;
1446;SDS011;717;51.522;7.266;2023-02-18T10:00:22;11.57;;;6.85;;
1446;SDS011;717;51.522;7.266;2023-02-18T10:02:56;9.27;;;5.75;;
1446;SDS011;717;51.522;7.266;2023-02-18T10:05:26;9.85;;;4.93;;
1446;SDS011;717;51.522;7.266;2023-02-18T10:07:57;12.52;;;7.88;;
1446;SDS011;717;51.522;7.266;2023-02-18T10:10:35;10.43;;;6.07;;
1446;SDS011;717;51.522;7.266;2023-02-18T10:13:09;12.07;;;7.53;;
1446;SDS011;717;51.522;7.266;2023-02-18T10:15:40;10.82;;;6.07;;
1446;SDS011;717;51.522;7.266;2023-02-18T10:18:15;9.95;;;6.78;;
1446;SDS011;717;51.522;7.266;2023-02-18T10:20:48;13.98;;;6.70;;
1446;SDS011;717;51.522;7.266;2023-02-18T10:23:19;15.30;;;8.00;;
1446;SDS011;717;51.522;7.266;2023-02-18T10:25:51;12.77;;;6.95;;
1446;SDS011;717;51.522;7.266;2023-02-18T10:28:20;11.90;;;7.10;;
1446;SDS011;717;51.522;7.266;2023-02-18T10:30:52;12.32;;;5.97;;
1446;SDS011;717;51.522;7.266;2023-02-18T10:33:32;10.45;;;6.50;;
1446;SDS011;717;51.522;7.266;2023-02-18T10:39:00;9.57;;;7.10;;
1446;SDS011;717;51.522;7.266;2023-02-18T10:41:50;12.20;;;6.22;;
1446;SDS011;717;51.522;7.266;2023-02-18T10:44:30;11.18;;;5.45;;
1446;SDS011;717;51.522;7.266;2023-02-18T10:47:13;12.50;;;6.07;;
1446;SDS011;717;51.522;7.266;2023-02-18T10:49:55;6.88;;;3.47;;
1446;SDS011;717;51.522;7.266;2023-02-18T10:52:26;11.88;;;4.07;;
1446;SDS011;717;51.522;7.266;2023-02-18T10:54:58;12.45;;;6.45;;
1446;SDS011;717;51.522;7.266;2023-02-18T10:57:31;13.80;;;6.28;;
1446;SDS011;717;51.522;7.266;2023-02-18T11:00:01;13.93;;;7.13;;
1446;SDS011;717;51.522;7.266;2023-02-18T11:02:41;11.43;;;5.53;;
1446;SDS011;717;51.522;7.266;2023-02-18T11:05:16;10.07;;;4.18;;
1446;SDS011;717;51.522;7.266;2023-02-18T11:07:47;9.18;;;5.95;;
1446;SDS011;717;51.522;7.266;2023-02-18T11:10:21;11.68;;;6.47;;
1446;SDS011;717;51.522;7.266;2023-02-18T11:12:54;11.82;;;5.60;;
1446;SDS011;717;51.522;7.266;2023-02-18T11:15:26;13.68;;;6.13;;
1446;SDS011;717;51.522;7.266;2023-02-18T11:17:55;9.60;;;6.70;;
1446;SDS011;717;51.522;7.266;2023-02-18T11:20:28;12.43;;;6.57;;
1446;SDS011;717;51.522;7.266;2023-02-18T11:23:11;9.07;;;5.88;;
1446;SDS011;717;51.522;7.266;2023-02-18T11:26:00;8.65;;;5.55;;
1446;SDS011;717;51.522;7.266;2023-02-18T11:28:39;8.82;;;6.22;;
1446;SDS011;717;51.522;7.266;2023-02-18T11:31:11;11.27;;;7.28;;
1446;SDS011;717;51.522;7.266;2023-02-18T11:33:47;14.57;;;6.65;;
1446;SDS011;717;51.522;7.266;2023-02-18T11:36:21;11.80;;;6.75;;
1446;SDS011;717;51.522;7.266;2023-02-18T11:38:52;15.43;;;7.82;;
1446;SDS011;717;51.522;7.266;2023-02-18T11:41:28;11.63;;;8.43;;
1446;SDS011;717;51.522;7.266;2023-02-18T11:44:01;12.95;;;11.52;;
1446;SDS011;717;51.522;7.266;2023-02-18T11:46:32;12.10;;;9.77;;
1446;SDS011;717;51.522;7.266;2023-02-18T11:49:20;16.35;;;11.05;;
1446;SDS011;717;51.522;7.266;2023-02-18T11:51:50;15.90;;;11.43;;
1446;SDS011;717;51.522;7.266;2023-02-18T11:54:21;15.13;;;11.30;;
1446;SDS011;717;51.522;7.266;2023-02-18T11:56:55;10.88;;;9.05;;
1446;SDS011;717;51.522;7.266;2023-02-18T11:59:28;11.43;;;8.30;;
1446;SDS011;717;51.522;7.266;2023-02-18T12:02:02;18.05;;;11.00;;
1446;SDS011;717;51.522;7.266;2023-02-18T12:04:40;13.02;;;9.20;;
1446;SDS011;717;51.522;7.266;2023-02-18T12:07:14;13.77;;;11.32;;
1446;SDS011;717;51.522;7.266;2023-02-18T12:09:47;7.65;;;6.38;;
1446;SDS011;717;51.522;7.266;2023-02-18T12:12:22;12.20;;;9.40;;
1446;SDS011;717;51.522;7.266;2023-02-18T12:14:56;11.77;;;9.48;;
1446;SDS011;717;51.522;7.266;2023-02-18T12:17:46;10.88;;;9.05;;
1446;SDS011;717;51.522;7.266;2023-02-18T12:20:32;12.05;;;8.05;;
1446;SDS011;717;51.522;7.266;2023-02-18T12:23:12;12.02;;;10.13;;
1446;SDS011;717;51.522;7.266;2023-02-18T12:25:48;6.07;;;4.10;;
1446;SDS011;717;51.522;7.266;2023-02-18T12:28:27;3.38;;;2.72;;
1446;SDS011;717;51.522;7.266;2023-02-18T12:31:19;10.70;;;7.97;;
1446;SDS011;717;51.522;7.266;2023-02-18T12:34:01;8.85;;;7.20;;
1446;SDS011;717;51.522;7.266;2023-02-18T12:36:44;8.80;;;5.68;;
1446;SDS011;717;51.522;7.266;2023-02-18T12:39:24;10.07;;;7.53;;
1446;SDS011;717;51.522;7.266;2023-02-18T12:42:16;8.63;;;6.45;;
1446;SDS011;717;51.522;7.266;2023-02-18T12:45:13;10.73;;;8.35;;
1446;SDS011;717;51.522;7.266;2023-02-18T12:48:08;10.00;;;6.63;;
1446;SDS011;717;51.522;7.266;2023-02-18T12:51:03;10.82;;;8.43;;
1446;SDS011;717;51.522;7.266;2023-02-18T12:53:52;9.02;;;6.38;;
1446;SDS011;717;51.522;7.266;2023-02-18T12:56:32;11.13;;;6.53;;
1446;SDS011;717;51.522;7.266;2023-02-18T12:59:29;12.07;;;7.85;;
1446;SDS011;717;51.522;7.266;2023-02-18T13:02:23;10.10;;;7.57;;
1446;SDS011;717;51.522;7.266;2023-02-18T13:05:08;9.77;;;7.22;;
1446;SDS011;717;51.522;7.266;2023-02-18T13:07:53;6.25;;;3.88;;
1446;SDS011;717;51.522;7.266;2023-02-18T13:10:54;11.93;;;8.30;;
1446;SDS011;717;51.522;7.266;2023-02-18T13:13:30;9.27;;;6.45;;
1446;SDS011;717;51.522;7.266;2023-02-18T13:16:02;9.38;;;6.53;;
1446;SDS011;717;51.522;7.266;2023-02-18T13:18:34;11.80;;;7.10;;
1446;SDS011;717;51.522;7.266;2023-02-18T13:21:09;15.57;;;9.52;;
1446;SDS011;717;51.522;7.266;2023-02-18T13:23:41;12.35;;;8.38;;
1446;SDS011;717;51.522;7.266;2023-02-18T13:26:17;10.50;;;7.35;;
1446;SDS011;717;51.522;7.266;2023-02-18T13:28:48;14.23;;;10.10;;
1446;SDS011;717;51.522;7.266;2023-02-18T13:31:27;14.27;;;9.05;;
1446;SDS011;717;51.522;7.266;2023-02-18T13:34:07;16.30;;;9.32;;
1446;SDS011;717;51.522;7.266;2023-02-18T13:36:59;17.98;;;11.55;;
1446;SDS011;717;51.522;7.266;2023-02-18T13:39:33;14.25;;;10.43;;
1446;SDS011;717;51.522;7.266;2023-02-18T13:42:09;17.88;;;12.98;;
1446;SDS011;717;51.522;7.266;2023-02-18T13:45:03;20.85;;;12.85;;
1446;SDS011;717;51.522;7.266;2023-02-18T13:47:48;14.75;;;10.20;;
1446;SDS011;717;51.522;7.266;2023-02-18T13:50:25;19.38;;;13.57;;
1446;SDS011;717;51.522;7.266;2023-02-18T13:53:14;18.05;;;12.00;;
1446;SDS011;717;51.522;7.266;2023-02-18T13:56:01;14.70;;;9.65;;
1446;SDS011;717;51.522;7.266;2023-02-18T13:58:38;21.42;;;14.85;;
1446;SDS011;717;51.522;7.266;2023-02-18T14:01:13;21.42;;;14.05;;
1446;SDS011;717;51.522;7.266;2023-02-18T14:04:00;24.98;;;16.58;;
1446;SDS011;717;51.522;7.266;2023-02-18T14:06:31;21.67;;;15.35;;
1446;SDS011;717;51.522;7.266;2023-02-18T14:15:28;21.52;;;14.65;;
1446;SDS011;717;51.522;7.266;2023-02-18T14:18:21;24.38;;;15.23;;
1446;SDS011;717;51.522;7.266;2023-02-18T14:20:52;25.90;;;14.45;;
1446;SDS011;717;51.522;7.266;2023-02-18T14:23:40;24.23;;;15.35;;
1446;SDS011;717;51.522;7.266;2023-02-18T14:26:20;28.95;;;16.65;;
1446;SDS011;717;51.522;7.266;2023-02-18T14:28:56;24.67;;;13.38;;
1446;SDS011;717;51.522;7.266;2023-02-18T14:31:34;30.58;;;17.02;;
1446;SDS011;717;51.522;7.266;2023-02-18T14:34:18;31.13;;;16.55;;
1446;SDS011;717;51.522;7.266;2023-02-18T14:37:10;32.78;;;18.42;;
1446;SDS011;717;51.522;7.266;2023-02-18T14:39:54;34.17;;;18.10;;
1446;SDS011;717;51.522;7.266;2023-02-18T14:42:36;19.45;;;9.60;;
1446;SDS011;717;51.522;7.266;2023-02-18T14:45:13;35.08;;;18.92;;
1446;SDS011;717;51.522;7.266;2023-02-18T14:47:54;31.02;;;17.77;;
1446;SDS011;717;51.522;7.266;2023-02-18T14:50:37;37.08;;;18.98;;
1446;SDS011;717;51.522;7.266;2023-02-18T14:53:10;33.40;;;19.20;;
1446;SDS011;717;51.522;7.266;2023-02-18T14:55:42;32.85;;;17.08;;
1446;SDS011;717;51.522;7.266;2023-02-18T14:58:20;34.35;;;18.10;;
1446;SDS011;717;51.522;7.266;2023-02-18T15:00:55;34.20;;;18.65;;
1446;SDS011;717;51.522;7.266;2023-02-18T15:03:25;34.67;;;20.92;;
1446;SDS011;717;51.522;7.266;2023-02-18T15:05:55;39.80;;;20.38;;
1446;SDS011;717;51.522;7.266;2023-02-18T15:08:24;40.30;;;19.58;;
1446;SDS011;717;51.522;7.266;2023-02-18T15:10:55;38.08;;;19.50;;
1446;SDS011;717;51.522;7.266;2023-02-18T15:13:29;40.58;;;24.48;;
1446;SDS011;717;51.522;7.266;2023-02-18T15:16:01;44.97;;;19.33;;
1446;SDS011;717;51.522;7.266;2023-02-18T15:18:32;35.33;;;19.48;;
1446;SDS011;717;51.522;7.266;2023-02-18T15:21:04;38.03;;;20.00;;
1446;SDS011;717;51.522;7.266;2023-02-18T15:23:35;36.38;;;19.33;;
1446;SDS011;717;51.522;7.266;2023-02-18T15:26:10;37.75;;;19.30;;
1446;SDS011;717;51.522;7.266;2023-02-18T15:28:53;45.20;;;22.10;;
1446;SDS011;717;51.522;7.266;2023-02-18T15:31:25;37.20;;;20.35;;
1446;SDS011;717;51.522;7.266;2023-02-18T15:33:55;40.67;;;19.65;;
1446;SDS011;717;51.522;7.266;2023-02-18T15:36:24;43.67;;;20.45;;
1446;SDS011;717;51.522;7.266;2023-02-18T15:38:55;39.53;;;21.10;;
1446;SDS011;717;51.522;7.266;2023-02-18T15:41:24;38.53;;;20.27;;
1446;SDS011;717;51.522;7.266;2023-02-18T15:43:57;41.53;;;19.92;;
1446;SDS011;717;51.522;7.266;2023-02-18T15:46:28;42.58;;;22.58;;
1446;SDS011;717;51.522;7.266;2023-02-18T15:48:58;41.22;;;21.92;;
1446;SDS011;717;51.522;7.266;2023-02-18T15:51:28;35.33;;;18.60;;
1446;SDS011;717;51.522;7.266;2023-02-18T15:53:59;43.17;;;21.63;;
1446;SDS011;717;51.522;7.266;2023-02-18T15:56:30;41.00;;;20.25;;
1446;SDS011;717;51.522;7.266;2023-02-18T15:59:13;44.67;;;21.80;;
1446;SDS011;717;51.522;7.266;2023-02-18T16:01:46;35.17;;;19.35;;
1446;SDS011;717;51.522;7.266;2023-02-18T16:04:16;43.10;;;21.50;;
1446;SDS011;717;51.522;7.266;2023-02-18T16:06:47;41.15;;;21.27;;
1446;SDS011;717;51.522;7.266;2023-02-18T16:09:18;39.53;;;20.40;;
1446;SDS011;717;51.522;7.266;2023-02-18T16:11:50;40.00;;;20.55;;